This is the latest recevied weather packets stored in our database for station/object TA2EE-10. If no packets are shown the sender has not sent any weather packets the latest 1 day(s).
| Time | Temp. | Humidity | Pressure | Rain* | Wind** | Luminosity | Snow |
|---|---|---|---|---|---|---|---|
| 1836274270 | 20° C | 39% | 922 hPa | - | 0 m/s | 0 W/m² | - |
| 1836274098 | 20° C | 39% | 922 hPa | - | 0 m/s | 0 W/m² | - |
| 1778050301 | 26.11° C | 29% | 915 hPa | - | 0 m/s | 0 W/m² | - |
| 1778048180 | 22.22° C | 35% | 915 hPa | - | 0 m/s | 0 W/m² | - |
| 1778046057 | 16.67° C | 45% | 915 hPa | - | 0 m/s | 0 W/m² | - |
| 1778045907 | 16.67° C | 46% | 915 hPa | - | 0 m/s | 0 W/m² | - |
| 1778043785 | 15.56° C | 48% | 915 hPa | - | 0 m/s | 0 W/m² | - |
| 1778041663 | 15.56° C | 47% | 914 hPa | - | 0 m/s | 0 W/m² | - |
| 1778039540 | 16.11° C | 47% | 914 hPa | - | 0 m/s | 0 W/m² | - |
| 1778037418 | 16.11° C | 48% | 914 hPa | - | 0 m/s | 0 W/m² | - |
| 1778035296 | 16.11° C | 48% | 913 hPa | - | 0 m/s | 0 W/m² | - |
| 1778033174 | 16.11° C | 49% | 913 hPa | - | 0 m/s | 0 W/m² | - |
| 1778031052 | 16.11° C | 49% | 913 hPa | - | 0 m/s | 0 W/m² | - |
| 1778028930 | 16.11° C | 48% | 913 hPa | - | 0 m/s | 0 W/m² | - |
| 1778026808 | 16.67° C | 48% | 913 hPa | - | 0 m/s | 0 W/m² | - |
| 1778024686 | 16.67° C | 47% | 913 hPa | - | 0 m/s | 0 W/m² | - |
| 1778022563 | 17.78° C | 44% | 913 hPa | - | 0 m/s | 0 W/m² | - |
| 1778020441 | 17.78° C | 44% | 913 hPa | - | 0 m/s | 0 W/m² | - |
| 1778018319 | 17.78° C | 45% | 913 hPa | - | 0 m/s | 0 W/m² | - |
| 1778016197 | 17.78° C | 45% | 913 hPa | - | 0 m/s | 0 W/m² | - |
| 1778014075 | 17.22° C | 45% | 913 hPa | - | 0 m/s | 0 W/m² | - |
| 1778011953 | 17.78° C | 44% | 913 hPa | - | 0 m/s | 0 W/m² | - |
| 1778009831 | 18.33° C | 43% | 913 hPa | - | 0 m/s | 0 W/m² | - |
| 1778007709 | 18.33° C | 43% | 913 hPa | - | 0 m/s | 0 W/m² | - |
| 1778005587 | 18.89° C | 41% | 912 hPa | - | 0 m/s | 0 W/m² | - |
* Rain since midnight (hover to see other rain measurements)
** Current wind speed in m/s (hover to see current wind gust speed)